createdAt,value
2022-10-30T00:01:55.220Z,20.40
2022-10-30T00:04:22.774Z,20.40
2022-10-30T00:06:50.097Z,20.30
2022-10-30T00:09:17.034Z,20.60
2022-10-30T00:11:44.334Z,20.80
2022-10-30T00:14:13.282Z,20.80
2022-10-30T00:21:40.274Z,20.80
2022-10-30T00:24:08.252Z,20.80
2022-10-30T00:26:35.611Z,20.80
2022-10-30T00:29:03.143Z,20.90
2022-10-30T00:31:31.251Z,21.00
2022-10-30T00:33:58.853Z,21.00
2022-10-30T00:36:26.231Z,21.10
2022-10-30T00:43:33.943Z,21.00
2022-10-30T00:46:06.447Z,20.90
2022-10-30T00:48:34.565Z,20.80
2022-10-30T00:51:04.093Z,20.80
2022-10-30T00:53:31.231Z,20.70
2022-10-30T00:56:01.864Z,20.80
2022-10-30T00:58:33.004Z,20.70
2022-10-30T01:06:03.117Z,20.60
2022-10-30T01:08:31.490Z,20.60
2022-10-30T01:11:00.835Z,20.60
2022-10-30T01:13:29.433Z,20.60
2022-10-30T01:16:12.891Z,20.70
2022-10-30T01:18:50.257Z,20.80
2022-10-30T01:28:51.013Z,20.60
2022-10-30T01:31:32.553Z,20.70
2022-10-30T01:34:17.511Z,20.60
2022-10-30T01:36:51.951Z,20.60
2022-10-30T01:39:22.365Z,20.60
2022-10-30T01:41:49.484Z,20.60
2022-10-30T01:50:19.784Z,20.30
2022-10-30T01:52:56.225Z,20.40
2022-10-30T01:55:35.924Z,20.50
2022-10-30T01:58:08.034Z,20.50
2022-10-30T02:00:36.564Z,20.50
2022-10-30T02:03:04.682Z,20.50
2022-10-30T02:05:37.832Z,20.50
2022-10-30T02:13:09.802Z,20.50
2022-10-30T02:15:38.125Z,20.50
2022-10-30T02:18:05.412Z,20.40
2022-10-30T02:20:33.616Z,20.50
2022-10-30T02:23:00.889Z,20.50
2022-10-30T02:25:28.496Z,20.50
2022-10-30T02:27:55.796Z,20.50
2022-10-30T02:35:25.403Z,20.60
2022-10-30T02:37:52.533Z,20.50
2022-10-30T02:40:19.406Z,20.50
2022-10-30T02:42:52.375Z,20.50
2022-10-30T02:45:19.840Z,20.40
2022-10-30T02:47:47.111Z,20.50
2022-10-30T02:50:14.525Z,20.50
2022-10-30T02:57:28.963Z,20.40
2022-10-30T02:59:58.638Z,20.60
2022-10-30T03:02:28.603Z,20.60
2022-10-30T03:04:56.712Z,20.50
2022-10-30T03:07:23.984Z,20.50
2022-10-30T03:09:54.136Z,20.50
2022-10-30T03:12:22.135Z,20.50
2022-10-30T03:20:12.516Z,20.40
2022-10-30T03:22:39.614Z,20.40
2022-10-30T03:25:07.484Z,20.40
2022-10-30T03:27:34.995Z,20.30
2022-10-30T03:30:02.028Z,20.20
2022-10-30T03:32:29.183Z,20.30
2022-10-30T03:40:01.436Z,20.30
2022-10-30T03:42:28.332Z,20.30
2022-10-30T03:44:55.492Z,20.30
2022-10-30T03:47:22.675Z,20.20
2022-10-30T03:49:50.597Z,20.30
2022-10-30T03:52:19.324Z,20.30
2022-10-30T03:54:46.644Z,20.40
2022-10-30T04:02:13.156Z,20.70
2022-10-30T04:04:40.503Z,20.40
2022-10-30T04:07:07.764Z,20.20
2022-10-30T04:09:34.745Z,20.20
2022-10-30T04:12:02.887Z,20.10
2022-10-30T04:14:29.964Z,20.10
2022-10-30T04:16:56.803Z,20.00
2022-10-30T04:24:10.533Z,20.20
2022-10-30T04:26:37.761Z,20.10
2022-10-30T04:29:05.245Z,19.90
2022-10-30T04:31:32.143Z,20.00
2022-10-30T04:33:59.534Z,19.90
2022-10-30T04:36:32.455Z,19.90
2022-10-30T04:38:59.572Z,20.00
2022-10-30T04:45:23.945Z,19.70
2022-10-30T04:47:51.713Z,19.50
2022-10-30T04:50:21.052Z,19.50
2022-10-30T04:52:47.914Z,19.50
2022-10-30T04:55:15.345Z,19.50
2022-10-30T04:57:42.823Z,19.50
2022-10-30T05:00:12.611Z,19.50
2022-10-30T05:07:22.029Z,19.40
2022-10-30T05:09:49.963Z,19.40
2022-10-30T05:12:19.205Z,19.50
2022-10-30T05:14:46.434Z,19.50
2022-10-30T05:17:13.311Z,19.40
2022-10-30T05:19:40.372Z,19.30
2022-10-30T05:22:08.744Z,19.10
2022-10-30T05:29:40.415Z,19.00
2022-10-30T05:32:08.663Z,18.40
2022-10-30T05:34:36.052Z,18.50
2022-10-30T05:37:03.654Z,18.30
2022-10-30T05:39:32.165Z,17.90
2022-10-30T05:42:00.155Z,18.00
2022-10-30T05:44:40.782Z,18.20
2022-10-30T05:52:20.856Z,18.10
2022-10-30T05:54:49.191Z,18.20
2022-10-30T05:57:18.343Z,18.30
2022-10-30T05:59:45.971Z,18.50
2022-10-30T06:02:13.894Z,18.70
2022-10-30T06:04:41.734Z,18.80
2022-10-30T06:07:11.312Z,18.90
2022-10-30T06:12:54.005Z,18.80
2022-10-30T06:15:21.844Z,18.80
2022-10-30T06:17:49.576Z,18.80
2022-10-30T06:20:18.764Z,18.70
2022-10-30T06:22:55.272Z,18.70
2022-10-30T06:25:22.572Z,18.50
2022-10-30T06:27:49.881Z,18.60
2022-10-30T06:34:48.816Z,18.10
2022-10-30T06:37:15.731Z,17.40
2022-10-30T06:39:43.004Z,17.50
2022-10-30T06:42:10.224Z,17.80
2022-10-30T06:44:37.585Z,17.10
2022-10-30T06:47:05.042Z,16.60
2022-10-30T06:49:32.305Z,16.30
2022-10-30T06:57:03.792Z,16.90
2022-10-30T06:59:30.963Z,17.40
2022-10-30T07:02:00.461Z,17.10
2022-10-30T07:04:28.794Z,17.20
2022-10-30T07:06:56.705Z,17.10
2022-10-30T07:09:24.593Z,17.50
2022-10-30T07:11:55.937Z,17.80
2022-10-30T07:19:24.313Z,18.00
2022-10-30T07:21:52.145Z,18.60
2022-10-30T07:24:19.482Z,18.80
2022-10-30T07:26:46.676Z,19.00
2022-10-30T07:29:13.625Z,19.20
2022-10-30T07:31:49.695Z,19.30
2022-10-30T07:34:25.342Z,19.40
2022-10-30T07:41:36.443Z,19.70
2022-10-30T07:44:03.776Z,19.90
2022-10-30T07:46:30.601Z,20.10
2022-10-30T07:48:57.805Z,20.20
2022-10-30T07:51:25.052Z,20.40
2022-10-30T07:53:52.886Z,20.30
2022-10-30T07:56:20.502Z,20.30
2022-10-30T08:03:51.165Z,20.10
2022-10-30T08:06:21.435Z,19.80
2022-10-30T08:08:52.255Z,19.90
2022-10-30T08:11:19.492Z,19.90
2022-10-30T08:13:46.632Z,20.00
2022-10-30T08:16:14.012Z,19.90
2022-10-30T08:18:42.032Z,19.70
2022-10-30T08:25:48.589Z,19.80
2022-10-30T08:28:15.932Z,19.90
2022-10-30T08:30:43.274Z,20.00
2022-10-30T08:33:12.777Z,19.90
2022-10-30T08:35:47.409Z,20.10
2022-10-30T08:38:14.506Z,20.20
2022-10-30T08:40:42.369Z,20.30
2022-10-30T08:47:32.395Z,20.60
2022-10-30T08:49:59.914Z,20.90
2022-10-30T08:52:26.821Z,20.90
2022-10-30T08:54:54.833Z,20.90
2022-10-30T08:57:22.434Z,21.10
2022-10-30T08:59:50.504Z,20.90
2022-10-30T09:02:17.991Z,20.90
2022-10-30T09:09:45.233Z,21.00
2022-10-30T09:12:12.618Z,21.20
2022-10-30T09:14:39.896Z,21.50
2022-10-30T09:17:07.462Z,21.50
2022-10-30T09:19:34.689Z,21.80
2022-10-30T09:22:04.192Z,21.90
2022-10-30T09:24:32.345Z,21.80
2022-10-30T09:31:44.365Z,21.80
2022-10-30T09:34:12.472Z,22.00
2022-10-30T09:36:43.275Z,22.00
2022-10-30T09:39:11.393Z,22.10
2022-10-30T09:42:11.932Z,22.30
2022-10-30T09:45:15.122Z,22.30
2022-10-30T09:50:46.315Z,22.30
2022-10-30T09:53:23.443Z,22.20
2022-10-30T09:56:00.383Z,22.50
2022-10-30T09:58:33.212Z,22.70
2022-10-30T10:01:17.789Z,23.00
2022-10-30T10:03:59.040Z,23.00
2022-10-30T10:09:13.204Z,22.80
2022-10-30T10:11:44.553Z,22.60
2022-10-30T10:14:19.130Z,23.00
2022-10-30T10:16:52.083Z,23.40
2022-10-30T10:19:22.493Z,23.60
2022-10-30T10:21:56.688Z,23.80
2022-10-30T10:24:29.143Z,24.00
2022-10-30T10:32:20.644Z,23.80
2022-10-30T10:35:08.601Z,23.80
2022-10-30T10:37:43.412Z,24.00
2022-10-30T10:40:22.173Z,24.10
2022-10-30T10:43:07.331Z,24.10
2022-10-30T10:45:45.694Z,23.70
2022-10-30T10:53:41.992Z,23.60
2022-10-30T10:56:11.904Z,24.20
2022-10-30T10:58:49.082Z,24.30
2022-10-30T11:01:21.100Z,24.50
2022-10-30T11:03:56.592Z,24.70
2022-10-30T11:06:28.293Z,24.70
2022-10-30T11:09:13.414Z,24.90
2022-10-30T11:16:18.562Z,25.00
2022-10-30T11:18:48.731Z,25.00
2022-10-30T11:21:19.664Z,25.00
2022-10-30T11:23:49.921Z,25.30
2022-10-30T11:26:36.931Z,25.40
2022-10-30T11:29:11.899Z,25.50
2022-10-30T11:37:06.644Z,25.60
2022-10-30T11:39:35.783Z,25.80
2022-10-30T11:42:06.695Z,25.60
2022-10-30T11:44:38.972Z,25.70
2022-10-30T11:47:08.531Z,25.60
2022-10-30T11:49:48.055Z,25.60
2022-10-30T11:55:17.354Z,25.10
2022-10-30T11:57:50.268Z,25.40
2022-10-30T12:00:20.944Z,25.60
2022-10-30T12:02:52.036Z,25.60
2022-10-30T12:05:37.702Z,25.60
2022-10-30T12:08:20.248Z,25.60
2022-10-30T12:10:57.103Z,25.70
2022-10-30T12:18:00.952Z,25.80
2022-10-30T12:20:31.725Z,25.90
2022-10-30T12:23:08.361Z,26.00
2022-10-30T12:25:37.132Z,26.10
2022-10-30T12:28:08.494Z,26.50
2022-10-30T12:30:44.090Z,26.70
2022-10-30T12:33:17.596Z,26.80
2022-10-30T12:41:02.974Z,26.90
2022-10-30T12:43:35.174Z,27.00
2022-10-30T12:46:15.262Z,26.90
2022-10-30T12:48:48.205Z,26.90
2022-10-30T12:51:32.070Z,26.80
2022-10-30T12:54:07.312Z,26.60
2022-10-30T12:59:28.584Z,26.70
2022-10-30T13:01:59.921Z,26.70
2022-10-30T13:04:34.693Z,26.50
2022-10-30T13:07:10.382Z,26.30
2022-10-30T13:09:41.336Z,26.10
2022-10-30T13:12:14.803Z,26.10
2022-10-30T13:14:50.094Z,26.20
2022-10-30T13:22:25.691Z,26.50
2022-10-30T13:25:04.484Z,26.50
2022-10-30T13:27:46.171Z,26.60
2022-10-30T13:30:17.043Z,26.30
2022-10-30T13:33:02.635Z,26.40
2022-10-30T13:35:37.501Z,26.30
2022-10-30T13:43:24.937Z,26.10
2022-10-30T13:46:04.856Z,26.20
2022-10-30T13:48:49.983Z,26.10
2022-10-30T13:51:31.524Z,26.10
2022-10-30T13:54:06.084Z,26.10
2022-10-30T13:56:37.512Z,26.00
2022-10-30T14:04:21.238Z,25.70
2022-10-30T14:06:54.872Z,25.50
2022-10-30T14:09:33.905Z,25.40
2022-10-30T14:12:03.762Z,25.20
2022-10-30T14:14:33.292Z,25.20
2022-10-30T14:17:15.834Z,25.10
2022-10-30T14:26:23.436Z,25.00
2022-10-30T14:28:56.073Z,25.00
2022-10-30T14:31:35.124Z,24.80
2022-10-30T14:34:05.135Z,24.80
2022-10-30T14:36:51.553Z,24.80
2022-10-30T14:39:30.246Z,24.60
2022-10-30T14:45:04.573Z,24.40
2022-10-30T14:47:58.065Z,24.10
2022-10-30T14:50:38.344Z,23.90
2022-10-30T14:53:31.510Z,24.00
2022-10-30T14:56:07.117Z,23.70
2022-10-30T14:58:39.572Z,23.60
2022-10-30T15:06:43.022Z,22.90
2022-10-30T15:09:28.795Z,22.90
2022-10-30T15:12:30.928Z,22.80
2022-10-30T15:15:03.537Z,22.80
2022-10-30T15:17:37.673Z,22.60
2022-10-30T15:20:09.527Z,22.50
2022-10-30T15:27:49.722Z,22.70
2022-10-30T15:30:21.813Z,22.50
2022-10-30T15:32:52.284Z,22.40
2022-10-30T15:35:24.184Z,22.50
2022-10-30T15:38:09.336Z,22.60
2022-10-30T15:40:40.134Z,22.60
2022-10-30T15:43:13.494Z,22.60
2022-10-30T15:50:02.591Z,22.50
2022-10-30T15:52:34.228Z,22.30
2022-10-30T15:55:10.984Z,22.30
2022-10-30T16:00:35.771Z,22.20
2022-10-30T16:03:05.753Z,22.20
2022-10-30T16:05:35.794Z,22.20
2022-10-30T16:13:16.337Z,22.10
2022-10-30T16:15:51.963Z,22.10
2022-10-30T16:18:23.982Z,22.10
2022-10-30T16:20:55.581Z,22.00
2022-10-30T16:23:25.520Z,21.90
2022-10-30T16:26:01.063Z,21.90
2022-10-30T16:28:40.091Z,21.90
2022-10-30T16:36:16.675Z,21.90
2022-10-30T16:38:50.744Z,21.80
2022-10-30T16:41:26.930Z,21.80
2022-10-30T16:44:19.292Z,21.80
2022-10-30T16:46:55.475Z,21.80
2022-10-30T16:49:26.977Z,21.90
2022-10-30T16:52:02.904Z,21.80
2022-10-30T16:59:21.944Z,21.90
2022-10-30T17:01:57.179Z,21.80
2022-10-30T17:04:28.962Z,21.80
2022-10-30T17:07:06.346Z,21.70
2022-10-30T17:09:38.644Z,21.70
2022-10-30T17:12:17.272Z,21.70
2022-10-30T17:14:50.492Z,21.70
2022-10-30T17:22:31.615Z,21.50
2022-10-30T17:25:03.613Z,21.40
2022-10-30T17:27:47.141Z,21.50
2022-10-30T17:30:35.218Z,21.50
2022-10-30T17:33:04.082Z,21.40
2022-10-30T17:35:37.671Z,21.30
2022-10-30T17:41:02.127Z,21.20
2022-10-30T17:43:33.116Z,20.90
2022-10-30T17:46:01.055Z,20.90
2022-10-30T17:48:34.581Z,20.80
2022-10-30T17:51:01.869Z,20.90
2022-10-30T17:53:31.238Z,20.80
2022-10-30T17:58:49.830Z,21.00
2022-10-30T18:01:19.550Z,20.90
2022-10-30T18:03:47.131Z,20.70
2022-10-30T18:06:19.021Z,20.60
2022-10-30T18:08:50.862Z,20.60
2022-10-30T18:11:21.776Z,20.60
2022-10-30T18:13:53.550Z,20.90
2022-10-30T18:21:26.868Z,20.90
2022-10-30T18:23:57.720Z,20.80
2022-10-30T18:26:35.205Z,20.80
2022-10-30T18:29:07.268Z,20.80
2022-10-30T18:31:34.630Z,20.90
2022-10-30T18:34:03.756Z,20.90
2022-10-30T18:36:34.979Z,21.10
2022-10-30T18:43:43.696Z,21.20
2022-10-30T18:46:14.659Z,21.20
2022-10-30T18:48:43.629Z,21.20
2022-10-30T18:51:17.048Z,21.30
2022-10-30T18:53:52.109Z,21.40
2022-10-30T18:56:20.872Z,21.40
2022-10-30T18:58:52.443Z,21.30
2022-10-30T19:04:04.086Z,21.30
2022-10-30T19:06:34.803Z,20.90
2022-10-30T19:09:05.050Z,20.90
2022-10-30T19:11:36.243Z,20.80
2022-10-30T19:14:12.297Z,20.70
2022-10-30T19:16:42.084Z,20.60
2022-10-30T19:19:10.623Z,20.40
2022-10-30T19:26:42.150Z,20.20
2022-10-30T19:29:17.718Z,19.80
2022-10-30T19:31:50.538Z,19.70
2022-10-30T19:34:35.119Z,19.80
2022-10-30T19:37:03.470Z,20.10
2022-10-30T19:39:33.340Z,20.10
2022-10-30T19:42:06.029Z,20.10
2022-10-30T19:48:57.632Z,20.00
2022-10-30T19:51:26.674Z,19.70
2022-10-30T19:53:54.987Z,19.50
2022-10-30T19:56:28.017Z,19.50
2022-10-30T19:58:57.269Z,19.50
2022-10-30T20:01:26.054Z,19.50
2022-10-30T20:04:02.979Z,19.60
2022-10-30T20:11:32.374Z,19.50
2022-10-30T20:14:00.649Z,19.60
2022-10-30T20:16:29.162Z,19.70
2022-10-30T20:18:59.968Z,19.60
2022-10-30T20:21:31.027Z,19.70
2022-10-30T20:23:59.341Z,19.60
2022-10-30T20:26:32.435Z,19.40
2022-10-30T20:31:42.658Z,19.40
2022-10-30T20:34:10.347Z,19.40
2022-10-30T20:36:40.687Z,19.20
2022-10-30T20:39:22.558Z,19.10
2022-10-30T20:41:51.568Z,19.10
2022-10-30T20:44:19.742Z,18.90
2022-10-30T20:46:49.768Z,19.00
2022-10-30T21:04:47.630Z,18.90
2022-10-30T21:07:15.278Z,19.10
2022-10-30T21:09:46.029Z,19.20
2022-10-30T21:12:14.753Z,19.30
2022-10-30T21:14:42.269Z,19.30
2022-10-30T21:17:16.869Z,19.30
2022-10-30T21:19:45.651Z,19.50
2022-10-30T21:22:27.499Z,19.30
2022-10-30T21:27:34.704Z,19.40
2022-10-30T21:30:02.231Z,19.40
2022-10-30T21:32:30.382Z,19.30
2022-10-30T21:35:22.907Z,19.20
2022-10-30T21:37:50.560Z,19.10
2022-10-30T21:40:18.013Z,18.70
2022-10-30T21:42:48.581Z,18.60
2022-10-30T21:48:02.182Z,18.80
2022-10-30T21:50:32.788Z,18.70
2022-10-30T21:53:00.613Z,18.60
2022-10-30T21:55:38.501Z,18.80
2022-10-30T21:58:06.178Z,18.80
2022-10-30T22:00:34.010Z,18.80
2022-10-30T22:03:05.134Z,18.70
2022-10-30T22:10:38.583Z,18.70
2022-10-30T22:13:05.924Z,18.90
2022-10-30T22:15:33.317Z,19.00
2022-10-30T22:18:01.773Z,19.00
2022-10-30T22:20:28.848Z,19.10
2022-10-30T22:22:57.451Z,19.10
2022-10-30T22:25:30.846Z,18.90
2022-10-30T22:33:04.919Z,18.70
2022-10-30T22:35:32.724Z,18.60
2022-10-30T22:38:03.040Z,18.50
2022-10-30T22:40:31.068Z,18.40
2022-10-30T22:43:00.147Z,18.40
2022-10-30T22:45:27.897Z,18.20
2022-10-30T22:47:56.814Z,18.10
2022-10-30T22:53:06.221Z,18.00
2022-10-30T22:55:34.321Z,18.20
2022-10-30T22:58:02.284Z,18.00
2022-10-30T23:00:29.913Z,17.90
2022-10-30T23:02:58.527Z,18.00
2022-10-30T23:05:26.000Z,18.30
2022-10-30T23:07:56.299Z,18.30
2022-10-30T23:15:30.420Z,18.70
2022-10-30T23:17:57.985Z,19.10
2022-10-30T23:20:25.660Z,19.30
2022-10-30T23:22:52.920Z,19.50
2022-10-30T23:25:20.648Z,19.40
2022-10-30T23:27:48.312Z,19.30
2022-10-30T23:30:16.037Z,19.20
2022-10-30T23:37:49.379Z,19.20
2022-10-30T23:40:17.657Z,19.50
2022-10-30T23:42:44.799Z,19.60
2022-10-30T23:45:13.990Z,19.30
2022-10-30T23:47:44.501Z,19.00
2022-10-30T23:50:11.697Z,18.60
2022-10-30T23:52:39.010Z,18.40
2022-10-30T23:57:49.688Z,18.50
